• Join FlightAware (Why Join?)
  • Login
  • US Flag 
01:59PM EDT


 

Airport Tracker/Info


-or-


 

Live Flight TrackerFlight Track Log ✈ N244A ✈ 10-Sep-2013 ✈ KPWK - KSGF

Flight Track Log - Related Links

Times and Time Zones

All times are in EDT time to prevent confusion due to time zone crossing. See the N244A flight status page for this flight to view local times or setup timezone preferences in your user account.

Time Position Orientation Groundspeed Altitude Reporting Facility
EDT Latitude Longitude Course Direction KTS MPH feet Rate Location/Type
06:33PM 42.1000 -87.9000 71° East 146 168 1,300  Level Chicago TRACON
06:34PM 42.1167 -87.8333 71° East 227 261 1,900 1,560 Climbing Chicago TRACON
06:35PM 42.1667 -87.7667 45° Northeast 276 318 4,500 2,400 Climbing Chicago TRACON
06:36PM 42.1847 -87.7306 56° Northeast 263 303 5,500 3,060 Climbing Chicago Center
06:37PM 42.1231 -87.6561 138° Southeast 284 327 9,200 3,180 Climbing Chicago Center
06:38PM 42.0525 -87.7061 208° Southwest 288 331 12,100 2,580 Climbing Chicago Center
06:39PM 41.9950 -87.7889 227° Southwest 305 351 14,600 2,100 Climbing Chicago Center
06:40PM 41.9397 -87.8925 234° Southwest 341 392 16,500 2,280 Climbing Chicago Center
06:41PM 41.8528 -87.9617 211° Southwest 362 417 19,400 3,420 Climbing Chicago Center
06:42PM 41.7450 -88.0114 199° South 343 395 23,600 3,000 Climbing Chicago Center
06:43PM 41.6583 -88.0483 198° South 333 383 25,700 1,260 Climbing Chicago Center
06:44PM 41.5700 -88.0936 201° Southwest 339 390 26,300 720 Climbing Chicago Center
06:45PM 41.4756 -88.1394 200° South 370 426 27,200 1,200 Climbing Chicago Center
06:46PM 41.3469 -88.1953 198° South 399 459 28,800 1,440 Climbing Chicago Center
06:47PM 41.2453 -88.2406 199° South 395 455 30,200 1,140 Climbing Chicago Center
06:48PM 41.1417 -88.2900 200° South 397 457 31,200 960 Climbing Chicago Center
06:49PM 41.0369 -88.3417 200° South 404 465 32,200 960 Climbing Chicago Center
06:50PM 40.9389 -88.4639 223° Southwest 405 466 33,300 960 Climbing Chicago Center
06:51PM 40.8650 -88.5775 229° Southwest 408 470 34,300 720 Climbing Chicago Center
06:52PM 40.7894 -88.6869 228° Southwest 405 466 34,900 300 Climbing Chicago Center
06:53PM 40.7092 -88.7983 226° Southwest 418 481 35,000 240 Climbing Chicago Center
06:54PM 40.6214 -88.9267 228° Southwest 430 495 35,500 900 Climbing Chicago Center
06:55PM 40.5392 -89.0392 226° Southwest 427 491 36,900 1,140 Climbing Chicago Center
06:56PM 40.4639 -89.1475 228° Southwest 404 465 37,900 480 Climbing Chicago Center
06:58PM 40.3850 -89.2581 227° Southwest 413 475 38,000  Climbing Chicago Center
06:59PM 40.2869 -89.3950 227° Southwest 427 491 38,000  Level Chicago Center
07:00PM 40.2042 -89.5119 227° Southwest 436 502 38,000  Level Chicago Center
07:01PM 40.1192 -89.6292 227° Southwest 443 510 38,000  Level Chicago Center
07:02PM 40.0536 -89.7233 228° Southwest 439 505 38,000  Level Kansas City Center
07:03PM 39.9528 -89.8619 227° Southwest 438 504 38,000  Level Kansas City Center
07:04PM 39.8700 -89.9769 227° Southwest 435 501 38,000  Level Kansas City Center
07:05PM 39.7850 -90.0933 226° Southwest 440 506 38,000  Level Kansas City Center
07:06PM 39.7067 -90.2008 227° Southwest 439 505 38,000  Level Kansas City Center
07:07PM 39.6242 -90.3150 227° Southwest 437 503 38,000  Level Kansas City Center
07:08PM 39.5239 -90.4500 226° Southwest 436 502 38,000  Level Kansas City Center
07:09PM 39.4417 -90.5633 227° Southwest 435 501 38,000  Level Kansas City Center
07:10PM 39.3592 -90.6739 226° Southwest 432 497 38,000  Level Kansas City Center
07:11PM 39.2756 -90.7856 226° Southwest 434 499 38,000  Level Kansas City Center
07:12PM 39.1942 -90.8958 226° Southwest 431 496 38,000  Level Kansas City Center
07:13PM 39.0936 -91.0269 225° Southwest 432 497 38,000  Level Kansas City Center
07:14PM 39.0108 -91.1392 227° Southwest 435 501 38,000  Level Kansas City Center
07:15PM 38.9272 -91.2497 226° Southwest 435 501 38,000  Level Kansas City Center
07:16PM 38.8433 -91.3606 226° Southwest 436 502 38,000 -240 Level Kansas City Center
07:17PM 38.7581 -91.4728 226° Southwest 439 505 37,600 -900 Descending Kansas City Center
07:18PM 38.6661 -91.5953 226° Southwest 444 511 36,200 -1,560 Descending Kansas City Center
07:19PM 38.5578 -91.7344 225° Southwest 456 525 34,400 -1,440 Descending Kansas City Center
07:20PM 38.4678 -91.8514 226° Southwest 460 529 33,300 -1,020 Descending Kansas City Center
07:21PM 38.3778 -91.9653 225° Southwest 457 526 32,300 -1,140 Descending Kansas City Center
07:22PM 38.2867 -92.0828 225° Southwest 465 535 31,000 -1,500 Descending Kansas City Center
07:23PM 38.1833 -92.2153 225° Southwest 474 545 29,300 -1,860 Descending Kansas City Center
07:24PM 38.0886 -92.3364 225° Southwest 482 555 27,200 -1,860 Descending Kansas City Center
07:25PM 37.9986 -92.4600 227° Southwest 485 558 25,500 -1,620 Descending Kansas City Center
07:26PM 37.9000 -92.5758 223° Southwest 485 558 23,900 -1,740 Descending Kansas City Center
07:27PM 37.8078 -92.6917 225° Southwest 474 545 22,000 -2,220 Descending Kansas City Center
07:28PM 37.7153 -92.8064 224° Southwest 459 528 19,400 -3,240 Descending Kansas City Center
07:30PM 37.6158 -92.9311 225° Southwest 412 474 15,400 -3,720 Descending Kansas City Center
07:31PM 37.5422 -93.0217 224° Southwest 387 445 11,800 -2,880 Descending Kansas City Center
07:32PM 37.4783 -93.0978 223° Southwest 341 392 9,500 -2,220 Descending Kansas City Center
07:33PM 37.4258 -93.1650 225° Southwest 278 320 7,200 -2,640 Descending Kansas City Center
07:34PM 37.3706 -93.2314 224° Southwest 273 314 4,100 -2,100 Descending Kansas City Center
07:35PM 37.3233 -93.2967 228° Southwest 261 300 2,900 -900 Descending Kansas City Center
07:36PM 37.2972 -93.3569 241° Southwest 220 253 2,300 -540 Descending Kansas City Center
07:37PM 37.2553 -93.3958 216° Southwest 201 231 1,900 -420 Descending Kansas City Center
07:39PM 37.2457 -93.3886 219° Southwest  Level Estimated
07:46PM 37.2457 -93.3886 219° Southwest  Level Estimated
07:47PM 37.2457 -93.3886 219° Southwest  Level Estimated